Calldetenes (Osona)





Hora UTC 18:15
Temperatura 14.7 ºC
Humedad 70.0 %
Presión 1012.3 hPa
Pluja 0.0 mm
Velocidad viento 6.4 km/h
Dirección viento

Datos diarios 2024-04-16



Hora UTC (invierno +1h; verano +2h)
Temperatura (ºC) Humedad (%) Presión (hPa) Velocidad viento (km/h) Precipitación (mm)
Hora UTC Aire Humedad Presión Vel. Dir. Vel. Max Dir. Intent. máx 5 min.
00:05 10.4 78.0 1016.8 0.0 0.0 0.0
00:15 9.9 77.0 1016.8 1.6 6.4 0.0
00:35 9.7 80.0 1016.5 3.2 6.4 0.0
00:45 9.9 82.0 1016.5 3.2 9.7 0.0
00:55 10.1 82.0 1016.4 1.6 9.7 0.0
01:05 10.2 83.0 1016.3 0.0 9.7 0.0
01:15 10.2 82.0 1016.2 0.0 9.7 0.0
01:25 10.0 82.0 1016.1 0.0 9.7 0.0
01:35 9.7 81.0 1016.1 0.0 9.7 0.0
01:45 9.1 81.0 1016.0 0.0 9.7 0.0
01:55 8.7 83.0 1015.8 0.0 9.7 0.0
02:05 8.4 83.0 1015.9 0.0 9.7 0.0
02:15 8.1 84.0 1015.9 0.0 9.7 0.0
02:25 8.1 85.0 1015.6 0.0 9.7 0.0
02:35 8.3 85.0 1015.4 0.0 9.7 0.0
02:45 8.2 85.0 1015.5 0.0 9.7 0.0
02:55 8.1 85.0 1015.5 0.0 9.7 0.0
03:05 8.1 85.0 1015.5 0.0 9.7 0.0
03:15 7.7 85.0 1015.6 0.0 9.7 0.0
03:25 7.7 86.0 1015.6 0.0 9.7 0.0
03:35 7.3 85.0 1015.5 1.6 9.7 0.0
03:45 7.2 86.0 1015.2 0.0 9.7 0.0
03:55 7.3 86.0 1015.1 0.0 9.7 0.0
04:05 7.2 86.0 1015.0 0.0 9.7 0.0
04:15 7.3 86.0 1015.2 0.0 9.7 0.0
04:25 7.1 86.0 1015.2 0.0 9.7 0.0
04:35 7.4 87.0 1014.9 3.2 9.7 0.0
04:45 7.6 86.0 1015.1 3.2 9.7 0.0
04:55 7.4 85.0 1015.3 0.0 9.7 0.0
05:05 7.2 85.0 1015.5 0.0 9.7 0.0
05:15 7.0 85.0 1015.5 3.2 9.7 0.0
05:25 7.1 86.0 1015.3 1.6 9.7 0.0
05:35 7.2 86.0 1015.2 0.0 9.7 0.0
05:45 7.3 86.0 1015.2 0.0 9.7 0.0
05:55 7.7 86.0 1015.3 0.0 9.7 0.0
06:05 8.1 85.0 1015.2 0.0 9.7 0.0
06:15 8.6 83.0 1015.4 0.0 9.7 0.0
06:25 9.0 81.0 1015.3 0.0 9.7 0.0
06:35 9.4 80.0 1015.1 0.0 9.7 0.0
06:45 9.7 78.0 1015.2 0.0 9.7 0.0
06:55 9.9 77.0 1015.1 0.0 9.7 0.0
07:05 10.1 77.0 1015.0 0.0 9.7 0.0
07:15 10.3 76.0 1014.9 0.0 9.7 0.0
07:25 10.8 75.0 1014.8 0.0 9.7 0.0
07:35 11.1 73.0 1014.8 0.0 9.7 0.0
07:45 11.9 69.0 1014.7 0.0 9.7 0.0
07:55 12.5 68.0 1014.8 0.0 9.7 0.0
08:05 12.9 66.0 1014.7 0.0 9.7 0.0
08:15 13.0 65.0 1014.7 0.0 9.7 0.0
08:25 13.2 64.0 1014.7 0.0 9.7 0.0
08:35 13.4 64.0 1014.6 0.0 9.7 0.0
08:45 13.3 65.0 1014.5 0.0 9.7 0.0
08:55 13.2 64.0 1014.5 0.0 9.7 0.0
09:05 13.2 66.0 1014.4 0.0 9.7 0.0
09:15 13.6 64.0 1014.5 0.0 9.7 0.0
09:25 14.0 64.0 1014.5 0.0 9.7 0.0
09:35 14.4 62.0 1014.3 0.0 9.7 0.0
09:45 14.7 62.0 1014.2 0.0 9.7 0.0
09:55 15.1 61.0 1014.2 1.6 9.7 0.0
10:05 15.7 60.0 1014.0 0.0 9.7 0.0
10:15 16.2 60.0 1014.0 0.0 9.7 0.0
10:25 15.8 60.0 1013.9 1.6 9.7 0.0
10:35 15.7 60.0 1013.8 0.0 9.7 0.0
10:45 16.1 60.0 1013.8 0.0 9.7 0.0
10:55 16.6 58.0 1013.6 1.6 9.7 0.0
11:05 17.3 59.0 1013.4 1.6 9.7 0.0
11:15 16.8 58.0 1013.3 6.4 14.5 0.0
11:25 17.3 57.0 1013.2 4.8 17.7 0.0
11:35 17.7 57.0 1013.0 6.4 17.7 0.0
11:45 18.4 54.0 1012.8 1.6 17.7 0.0
11:55 18.4 56.0 1012.5 1.6 17.7 0.0
12:05 18.5 55.0 1012.4 1.6 17.7 0.0
12:15 19.0 52.0 1012.3 4.8 17.7 0.0
12:25 18.4 54.0 1012.3 4.8 17.7 0.0
12:35 18.9 53.0 1012.2 4.8 17.7 0.0
12:45 19.6 48.0 1012.1 8.0 17.7 0.0
12:55 19.8 47.0 1012.0 6.4 19.3 0.0
13:05 19.3 47.0 1011.9 8.0 20.9 0.0
13:15 19.4 47.0 1011.8 9.7 20.9 0.0
13:25 20.2 45.0 1011.7 4.8 20.9 0.0
13:35 20.6 44.0 1011.6 12.9 27.4 0.0
13:45 20.4 44.0 1011.2 8.0 27.4 0.0
13:55 20.7 42.0 1011.1 9.7 27.4 0.0
14:05 20.8 43.0 1011.1 9.7 27.4 0.0
14:15 20.7 43.0 1011.0 9.7 27.4 0.0
14:25 21.1 48.0 1010.9 14.5 27.4 0.0
14:35 20.9 49.0 1010.9 14.5 27.4 0.0
14:45 20.6 50.0 1010.8 17.7 30.6 0.0
14:55 20.1 51.0 1010.7 17.7 30.6 0.0
15:05 20.2 51.0 1010.6 16.1 30.6 0.0
15:15 20.1 50.0 1010.4 16.1 30.6 0.0
15:25 19.9 51.0 1010.4 12.9 30.6 0.0
15:35 19.9 51.0 1010.5 14.5 30.6 0.0
15:45 19.9 52.0 1010.5 16.1 30.6 0.0
15:55 19.9 50.0 1010.5 12.9 32.2 0.0
16:05 19.6 50.0 1010.5 14.5 32.2 0.0
16:15 19.3 51.0 1010.6 12.9 32.2 0.0
16:25 18.7 58.0 1010.7 6.4 32.2 0.0
16:35 18.1 59.0 1010.8 3.2 32.2 0.0
16:45 17.8 61.0 1010.9 3.2 32.2 0.0
16:55 17.4 62.0 1011.1 3.2 32.2 0.0
17:05 17.3 60.0 1011.2 3.2 32.2 0.0
17:15 16.8 60.0 1011.4 1.6 32.2 0.0
17:25 16.4 62.0 1011.7 6.4 32.2 0.0
17:35 15.7 67.0 1011.7 3.2 32.2 0.0
17:45 15.5 66.0 1011.9 3.2 32.2 0.0
17:55 15.2 67.0 1012.0 9.7 32.2 0.0
18:05 15.1 68.0 1012.2 1.6 32.2 0.0
18:15 14.7 70.0 1012.3 6.4 32.2 0.0
Máxima 21.1 87.0 1016.8 17.7 32.2 0.0
Mínima 6.9 42.0 1010.4
Total 0.0